createdAt,value
2023-05-15T00:00:52.631Z,66.53
2023-05-15T00:03:22.506Z,67.01
2023-05-15T00:05:57.881Z,66.91
2023-05-15T00:08:28.512Z,66.87
2023-05-15T00:11:01.592Z,66.95
2023-05-15T00:13:32.262Z,66.54
2023-05-15T00:16:01.241Z,66.31
2023-05-15T00:18:33.479Z,66.71
2023-05-15T00:21:04.256Z,67.73
2023-05-15T00:23:32.949Z,68.17
2023-05-15T00:26:01.581Z,67.91
2023-05-15T00:28:30.301Z,68.15
2023-05-15T00:30:59.066Z,68.01
2023-05-15T00:33:27.785Z,69.86
2023-05-15T00:35:56.835Z,69.69
2023-05-15T00:38:28.063Z,68.51
2023-05-15T00:40:57.961Z,68.04
2023-05-15T00:43:28.237Z,68.14
2023-05-15T00:46:04.735Z,67.97
2023-05-15T00:48:36.392Z,67.33
2023-05-15T00:51:05.315Z,68.27
2023-05-15T00:53:35.379Z,68.04
2023-05-15T00:56:07.317Z,67.48
2023-05-15T00:58:38.027Z,67.39
2023-05-15T01:01:09.662Z,67.83
2023-05-15T01:03:43.236Z,67.50
2023-05-15T01:06:14.509Z,67.54
2023-05-15T01:08:49.056Z,68.15
2023-05-15T01:11:19.309Z,68.06
2023-05-15T01:13:48.242Z,67.53
2023-05-15T01:16:16.933Z,68.12
2023-05-15T01:18:46.709Z,68.87
2023-05-15T01:21:54.204Z,68.48
2023-05-15T01:24:46.846Z,68.54
2023-05-15T01:27:23.563Z,68.50
2023-05-15T01:30:06.578Z,68.82
2023-05-15T01:32:59.340Z,68.75
2023-05-15T01:35:42.387Z,68.63
2023-05-15T01:38:23.271Z,68.95
2023-05-15T01:41:03.283Z,68.74
2023-05-15T01:43:37.273Z,68.51
2023-05-15T01:46:11.201Z,68.47
2023-05-15T01:48:45.046Z,68.69
2023-05-15T01:51:17.204Z,69.16
2023-05-15T01:53:50.431Z,69.23
2023-05-15T01:56:25.662Z,69.27
2023-05-15T01:59:00.229Z,68.54
2023-05-15T02:01:34.087Z,68.34
2023-05-15T02:04:05.439Z,68.30
2023-05-15T02:06:35.549Z,68.40
2023-05-15T02:09:06.595Z,67.77
2023-05-15T02:11:36.623Z,67.59
2023-05-15T02:14:10.154Z,67.46
2023-05-15T02:16:39.013Z,66.71
2023-05-15T02:19:10.409Z,66.05
2023-05-15T02:21:39.214Z,64.93
2023-05-15T02:24:08.685Z,64.05
2023-05-15T02:26:55.316Z,62.96
2023-05-15T02:29:40.246Z,61.35
2023-05-15T02:32:22.360Z,61.32
2023-05-15T02:35:02.988Z,60.79
2023-05-15T02:37:36.972Z,60.70
2023-05-15T02:40:11.645Z,59.82
2023-05-15T02:42:43.717Z,59.33
2023-05-15T02:45:16.106Z,58.77
2023-05-15T02:47:45.614Z,58.52
2023-05-15T02:50:17.253Z,58.77
2023-05-15T02:52:46.792Z,58.55
2023-05-15T02:55:17.786Z,57.96
2023-05-15T02:57:47.120Z,58.03
2023-05-15T03:00:18.370Z,58.10
2023-05-15T03:02:47.122Z,58.11
2023-05-15T03:05:15.805Z,57.59
2023-05-15T03:07:45.492Z,57.90
2023-05-15T03:10:15.928Z,57.64
2023-05-15T03:12:45.107Z,57.96
2023-05-15T03:15:14.043Z,58.40
2023-05-15T03:17:44.835Z,58.65
2023-05-15T03:20:15.261Z,58.61
2023-05-15T03:22:47.510Z,58.81
2023-05-15T03:25:19.468Z,59.08
2023-05-15T03:27:51.397Z,59.06
2023-05-15T03:30:22.107Z,59.18
2023-05-15T03:32:53.655Z,59.64
2023-05-15T03:35:26.310Z,59.71
2023-05-15T03:37:55.420Z,59.45
2023-05-15T03:40:27.945Z,59.89
2023-05-15T03:42:56.595Z,60.27
2023-05-15T03:45:25.673Z,59.95
2023-05-15T03:47:56.218Z,59.48
2023-05-15T03:50:25.345Z,59.06
2023-05-15T03:52:54.584Z,58.64
2023-05-15T03:55:23.579Z,58.14
2023-05-15T03:57:52.492Z,58.31
2023-05-15T04:00:22.225Z,57.96
2023-05-15T04:03:03.157Z,58.09
2023-05-15T04:05:34.179Z,57.69
2023-05-15T04:08:12.627Z,57.72
2023-05-15T04:10:52.149Z,57.59
2023-05-15T04:13:24.464Z,57.43
2023-05-15T04:15:55.471Z,57.18
2023-05-15T04:18:28.432Z,57.44
2023-05-15T04:21:01.943Z,57.55
2023-05-15T04:23:35.028Z,57.41
2023-05-15T04:26:10.777Z,57.58
2023-05-15T04:28:52.425Z,57.44
2023-05-15T04:31:36.107Z,57.00
2023-05-15T04:34:08.621Z,56.67
2023-05-15T04:36:40.576Z,56.26
2023-05-15T04:39:16.822Z,55.78
2023-05-15T04:41:49.399Z,55.31
2023-05-15T04:44:19.465Z,55.06
2023-05-15T04:46:52.971Z,54.68
2023-05-15T04:49:27.628Z,53.90
2023-05-15T04:51:58.932Z,53.80
2023-05-15T04:54:30.372Z,53.62
2023-05-15T04:57:02.671Z,53.53
2023-05-15T04:59:39.491Z,53.72
2023-05-15T05:02:14.551Z,53.47
2023-05-15T05:04:45.830Z,53.53
2023-05-15T05:07:14.583Z,53.44
2023-05-15T05:09:43.646Z,53.81
2023-05-15T05:12:12.469Z,53.85
2023-05-15T05:14:42.300Z,53.51
2023-05-15T05:17:11.548Z,53.37
2023-05-15T05:19:40.315Z,52.99
2023-05-15T05:22:10.560Z,52.39
2023-05-15T05:24:39.290Z,52.13
2023-05-15T05:27:08.152Z,51.83
2023-05-15T05:29:37.036Z,51.83
2023-05-15T05:32:07.666Z,51.56
2023-05-15T05:34:36.694Z,51.20
2023-05-15T05:37:06.452Z,50.21
2023-05-15T05:39:36.964Z,49.67
2023-05-15T05:42:06.656Z,49.15
2023-05-15T05:44:35.452Z,48.72
2023-05-15T05:47:04.298Z,48.66
2023-05-15T05:49:33.022Z,48.87
2023-05-15T05:52:08.582Z,48.11
2023-05-15T05:54:38.688Z,47.82
2023-05-15T05:57:07.790Z,46.76
2023-05-15T05:59:37.400Z,46.46
2023-05-15T06:02:06.597Z,46.50
2023-05-15T06:04:35.573Z,46.29
2023-05-15T06:07:04.718Z,46.35
2023-05-15T06:09:33.447Z,46.34
2023-05-15T06:12:04.934Z,46.39
2023-05-15T06:14:33.788Z,46.39
2023-05-15T06:17:03.146Z,48.02
2023-05-15T06:19:31.896Z,48.60
2023-05-15T06:22:00.594Z,48.88
2023-05-15T06:24:29.383Z,48.80
2023-05-15T06:26:58.378Z,48.17
2023-05-15T06:29:28.793Z,47.76
2023-05-15T06:31:57.752Z,47.51
2023-05-15T06:34:26.486Z,46.63
2023-05-15T06:36:55.119Z,47.63
2023-05-15T06:39:23.986Z,47.31
2023-05-15T06:41:58.012Z,47.29
2023-05-15T06:44:28.175Z,47.90
2023-05-15T06:46:56.913Z,48.00
2023-05-15T06:49:26.324Z,48.38
2023-05-15T06:51:55.774Z,48.51
2023-05-15T06:54:24.580Z,49.16
2023-05-15T06:56:53.268Z,48.64
2023-05-15T06:59:21.967Z,48.00
2023-05-15T07:01:52.061Z,47.26
2023-05-15T07:04:21.139Z,46.95
2023-05-15T07:06:49.784Z,47.05
2023-05-15T07:09:18.514Z,47.12
2023-05-15T07:11:47.256Z,46.85
2023-05-15T07:14:16.011Z,46.05
2023-05-15T07:16:45.363Z,45.22
2023-05-15T07:19:19.551Z,44.90
2023-05-15T07:21:48.446Z,44.51
2023-05-15T07:24:17.106Z,43.60
2023-05-15T07:26:57.542Z,43.65
2023-05-15T07:29:27.952Z,43.78
2023-05-15T07:31:56.822Z,43.65
2023-05-15T07:34:26.995Z,42.94
2023-05-15T07:36:55.666Z,42.77
2023-05-15T07:39:24.424Z,42.29
2023-05-15T07:41:53.115Z,42.47
2023-05-15T07:44:21.720Z,42.32
2023-05-15T07:46:50.362Z,41.61
2023-05-15T07:49:19.070Z,41.62
2023-05-15T07:51:49.414Z,40.99
2023-05-15T07:54:18.145Z,40.29
2023-05-15T07:56:46.856Z,38.87
2023-05-15T07:59:15.650Z,37.66
2023-05-15T08:01:44.434Z,37.20
2023-05-15T08:04:13.825Z,37.40
2023-05-15T08:06:44.352Z,37.37
2023-05-15T08:09:14.791Z,36.64
2023-05-15T08:11:43.415Z,36.81
2023-05-15T08:14:13.813Z,36.86
2023-05-15T08:16:42.844Z,35.84
2023-05-15T08:19:11.696Z,35.91
2023-05-15T08:21:40.966Z,36.86
2023-05-15T08:24:09.936Z,36.88
2023-05-15T08:26:40.030Z,37.20
2023-05-15T08:29:08.681Z,36.20
2023-05-15T08:31:37.423Z,36.10
2023-05-15T08:34:06.157Z,36.28
2023-05-15T08:36:35.927Z,36.31
2023-05-15T08:39:06.290Z,36.32
2023-05-15T08:41:43.497Z,36.20
2023-05-15T08:44:14.388Z,35.88
2023-05-15T08:46:43.467Z,36.06
2023-05-15T08:49:23.117Z,35.61
2023-05-15T08:51:52.217Z,35.62
2023-05-15T08:54:21.227Z,35.59
2023-05-15T08:56:51.652Z,35.97
2023-05-15T08:59:20.652Z,35.73
2023-05-15T09:01:49.922Z,35.73
2023-05-15T09:04:18.669Z,35.90
2023-05-15T09:06:49.388Z,36.13
2023-05-15T09:09:19.765Z,36.09
2023-05-15T09:11:52.220Z,36.38
2023-05-15T09:14:21.240Z,36.15
2023-05-15T09:16:53.578Z,35.74
2023-05-15T09:19:22.725Z,36.07
2023-05-15T09:21:51.714Z,35.99
2023-05-15T09:24:24.542Z,35.66
2023-05-15T09:27:06.380Z,35.23
2023-05-15T09:29:37.180Z,35.19
2023-05-15T09:32:09.164Z,35.36
2023-05-15T09:34:40.043Z,34.77
2023-05-15T09:37:11.010Z,34.68
2023-05-15T09:39:43.988Z,34.80
2023-05-15T09:42:16.099Z,35.08
2023-05-15T09:44:46.784Z,34.84
2023-05-15T09:47:17.617Z,34.63
2023-05-15T09:49:47.486Z,34.97
2023-05-15T09:52:18.425Z,34.64
2023-05-15T09:54:50.324Z,34.46
2023-05-15T09:57:24.368Z,34.09
2023-05-15T09:59:53.460Z,34.44
2023-05-15T10:02:28.232Z,34.54
2023-05-15T10:04:57.971Z,34.48
2023-05-15T10:07:31.341Z,34.62
2023-05-15T10:10:01.256Z,34.55
2023-05-15T10:12:36.847Z,34.00
2023-05-15T10:15:07.690Z,34.17
2023-05-15T10:17:37.733Z,33.64
2023-05-15T10:20:11.932Z,33.44
2023-05-15T10:22:46.486Z,33.41
2023-05-15T10:25:24.798Z,33.06
2023-05-15T10:27:56.519Z,33.01
2023-05-15T10:30:26.577Z,33.38
2023-05-15T10:32:57.131Z,33.27
2023-05-15T10:35:29.196Z,33.61
2023-05-15T10:37:59.408Z,33.60
2023-05-15T10:40:31.915Z,34.25
2023-05-15T10:43:02.992Z,33.41
2023-05-15T10:45:32.780Z,33.84
2023-05-15T10:48:03.417Z,33.54
2023-05-15T10:50:32.362Z,33.15
2023-05-15T10:53:02.067Z,33.36
2023-05-15T10:55:32.972Z,33.67
2023-05-15T10:58:03.330Z,33.66
2023-05-15T11:00:32.452Z,33.12
2023-05-15T11:03:02.365Z,33.22
2023-05-15T11:05:51.706Z,33.59
2023-05-15T11:08:27.541Z,33.52
2023-05-15T11:10:56.388Z,33.86
2023-05-15T11:13:26.708Z,33.39
2023-05-15T11:15:57.319Z,33.56
2023-05-15T11:18:27.591Z,33.95
2023-05-15T11:21:09.833Z,33.27
2023-05-15T11:23:43.038Z,33.70
2023-05-15T11:26:14.581Z,33.72
2023-05-15T11:28:47.208Z,33.71
2023-05-15T11:31:16.140Z,33.54
2023-05-15T11:33:44.939Z,34.15
2023-05-15T11:36:16.025Z,34.31
2023-05-15T11:38:45.482Z,34.30
2023-05-15T11:41:27.633Z,34.90
2023-05-15T11:44:02.371Z,35.25
2023-05-15T11:46:33.567Z,35.44
2023-05-15T11:49:02.621Z,35.34
2023-05-15T11:51:33.507Z,35.11
2023-05-15T11:54:05.695Z,34.16
2023-05-15T11:56:35.134Z,34.03
2023-05-15T11:59:05.574Z,33.64
2023-05-15T12:01:42.437Z,32.94
2023-05-15T12:04:16.505Z,32.79
2023-05-15T12:06:48.540Z,32.49
2023-05-15T12:09:19.484Z,32.52
2023-05-15T12:11:53.542Z,32.12
2023-05-15T12:14:29.896Z,32.07
2023-05-15T12:17:03.087Z,32.40
2023-05-15T12:19:33.468Z,31.84
2023-05-15T12:22:04.417Z,31.51
2023-05-15T12:24:33.204Z,32.02
2023-05-15T12:27:02.254Z,32.47
2023-05-15T12:29:33.258Z,32.31
2023-05-15T12:32:02.396Z,32.97
2023-05-15T12:34:31.413Z,32.25
2023-05-15T12:37:00.930Z,31.92
2023-05-15T12:39:29.944Z,31.97
2023-05-15T12:41:59.893Z,32.01
2023-05-15T12:44:29.446Z,31.96
2023-05-15T12:46:59.840Z,31.62
2023-05-15T12:49:29.684Z,31.42
2023-05-15T12:51:59.020Z,31.72
2023-05-15T12:54:29.141Z,31.76
2023-05-15T12:56:58.310Z,31.86
2023-05-15T12:59:28.129Z,32.60
2023-05-15T13:01:58.383Z,32.59
2023-05-15T13:04:27.514Z,32.69
2023-05-15T13:06:56.440Z,32.93
2023-05-15T13:09:26.484Z,33.18
2023-05-15T13:11:57.067Z,32.88
2023-05-15T13:14:29.058Z,32.73
2023-05-15T13:17:02.855Z,32.33
2023-05-15T13:19:31.666Z,32.75
2023-05-15T13:22:01.797Z,32.38
2023-05-15T13:24:31.415Z,32.32
2023-05-15T13:27:00.224Z,32.08
2023-05-15T13:29:28.860Z,31.92
2023-05-15T13:31:58.978Z,31.51
2023-05-15T13:34:27.648Z,31.86
2023-05-15T13:36:57.903Z,31.62
2023-05-15T13:39:26.624Z,31.97
2023-05-15T13:41:55.758Z,31.79
2023-05-15T13:44:24.453Z,31.11
2023-05-15T13:46:53.197Z,30.97
2023-05-15T13:49:23.307Z,31.09
2023-05-15T13:51:52.030Z,31.06
2023-05-15T13:54:20.728Z,31.28
2023-05-15T13:56:49.389Z,31.44
2023-05-15T13:59:19.647Z,31.23
2023-05-15T14:01:49.032Z,31.62
2023-05-15T14:04:17.719Z,31.45
2023-05-15T14:06:48.076Z,31.45
2023-05-15T14:09:17.480Z,31.23
2023-05-15T14:11:46.138Z,31.27
2023-05-15T14:14:14.764Z,31.43
2023-05-15T14:16:43.645Z,31.15
2023-05-15T14:19:12.405Z,30.79
2023-05-15T14:21:41.379Z,30.89
2023-05-15T14:24:11.659Z,30.76
2023-05-15T14:26:40.399Z,30.60
2023-05-15T14:29:09.352Z,30.06
2023-05-15T14:31:39.664Z,30.18
2023-05-15T14:34:08.523Z,30.16
2023-05-15T14:36:37.358Z,30.57
2023-05-15T14:39:06.325Z,30.30
2023-05-15T14:41:36.937Z,29.82
2023-05-15T14:44:05.969Z,29.66
2023-05-15T14:46:36.575Z,29.87
2023-05-15T14:49:05.925Z,29.80
2023-05-15T14:51:34.609Z,29.27
2023-05-15T14:54:05.029Z,29.61
2023-05-15T14:56:35.580Z,29.27
2023-05-15T14:59:04.374Z,29.65
2023-05-15T15:01:33.346Z,29.17
2023-05-15T15:04:02.166Z,29.00
2023-05-15T15:06:31.861Z,28.70
2023-05-15T15:09:00.532Z,28.59
2023-05-15T15:11:29.185Z,28.83
2023-05-15T15:13:59.214Z,30.51
2023-05-15T15:16:28.345Z,32.04
2023-05-15T15:18:59.002Z,32.64
2023-05-15T15:21:27.817Z,33.66
2023-05-15T15:23:56.448Z,33.79
2023-05-15T15:26:25.129Z,33.61
2023-05-15T15:28:55.296Z,34.17
2023-05-15T15:31:27.371Z,33.68
2023-05-15T15:33:57.758Z,33.48
2023-05-15T15:36:26.898Z,33.52
2023-05-15T15:38:55.606Z,33.15
2023-05-15T15:41:24.568Z,33.47
2023-05-15T15:43:55.661Z,33.82
2023-05-15T15:46:25.891Z,34.16
2023-05-15T15:48:54.669Z,33.68
2023-05-15T15:51:23.426Z,34.34
2023-05-15T15:53:52.131Z,34.55
2023-05-15T15:56:21.340Z,34.79
2023-05-15T15:58:50.104Z,35.08
2023-05-15T16:01:18.823Z,34.51
2023-05-15T16:03:48.868Z,34.79
2023-05-15T16:06:18.549Z,34.88
2023-05-15T16:08:47.315Z,34.91
2023-05-15T16:11:17.058Z,34.73
2023-05-15T16:13:45.782Z,34.79
2023-05-15T16:16:14.624Z,34.71
2023-05-15T16:18:44.833Z,34.75
2023-05-15T16:21:15.964Z,34.08
2023-05-15T16:23:45.509Z,34.61
2023-05-15T16:26:14.494Z,34.64
2023-05-15T16:28:43.184Z,34.83
2023-05-15T16:31:12.039Z,34.26
2023-05-15T16:33:40.918Z,34.26
2023-05-15T16:36:10.243Z,35.09
2023-05-15T16:38:40.315Z,35.36
2023-05-15T16:41:09.228Z,35.63
2023-05-15T16:43:38.818Z,35.51
2023-05-15T16:46:08.113Z,35.69
2023-05-15T16:48:38.059Z,36.10
2023-05-15T16:51:07.229Z,36.34
2023-05-15T16:53:35.984Z,36.50
2023-05-15T16:56:06.929Z,36.36
2023-05-15T16:58:36.765Z,36.50
2023-05-15T17:01:05.517Z,36.91
2023-05-15T17:03:34.516Z,37.14
2023-05-15T17:06:03.522Z,37.05
2023-05-15T17:08:38.859Z,37.58
2023-05-15T17:11:12.009Z,37.35
2023-05-15T17:13:41.000Z,37.63
2023-05-15T17:16:09.912Z,38.06
2023-05-15T17:18:40.234Z,38.29
2023-05-15T17:21:09.052Z,39.33
2023-05-15T17:23:37.864Z,39.96
2023-05-15T17:26:06.697Z,40.82
2023-05-15T17:28:40.401Z,41.66
2023-05-15T17:31:12.739Z,41.94
2023-05-15T17:33:41.588Z,42.76
2023-05-15T17:36:10.910Z,43.20
2023-05-15T17:38:39.954Z,43.97
2023-05-15T17:41:08.968Z,44.31
2023-05-15T17:43:51.711Z,44.53
2023-05-15T17:46:20.541Z,44.67
2023-05-15T17:48:49.353Z,44.87
2023-05-15T17:51:18.054Z,45.15
2023-05-15T17:53:52.923Z,45.42
2023-05-15T17:56:24.122Z,46.30
2023-05-15T17:58:54.593Z,47.32
2023-05-15T18:01:23.345Z,46.97
2023-05-15T18:03:52.164Z,47.02
2023-05-15T18:06:21.119Z,47.59
2023-05-15T18:08:51.603Z,48.09
2023-05-15T18:11:23.514Z,47.71
2023-05-15T18:13:54.250Z,48.46
2023-05-15T18:16:23.850Z,48.55
2023-05-15T18:18:53.520Z,48.65
2023-05-15T18:21:23.137Z,48.69
2023-05-15T18:23:52.667Z,49.73
2023-05-15T18:26:22.071Z,50.19
2023-05-15T18:28:50.940Z,50.00
2023-05-15T18:31:21.336Z,50.72
2023-05-15T18:33:53.189Z,50.34
2023-05-15T18:36:22.877Z,50.62
2023-05-15T18:38:52.004Z,50.64
2023-05-15T18:41:23.407Z,50.74
2023-05-15T18:43:52.907Z,50.73
2023-05-15T18:46:25.868Z,50.97
2023-05-15T18:48:54.841Z,51.03
2023-05-15T18:51:24.979Z,51.21
2023-05-15T18:53:53.679Z,51.24
2023-05-15T18:56:25.136Z,51.49
2023-05-15T18:58:55.259Z,51.83
2023-05-15T19:01:26.047Z,51.76
2023-05-15T19:03:55.116Z,52.30
2023-05-15T19:06:26.764Z,52.57
2023-05-15T19:08:58.767Z,53.00
2023-05-15T19:11:28.736Z,52.66
2023-05-15T19:13:57.646Z,53.30
2023-05-15T19:16:28.992Z,53.47
2023-05-15T19:19:00.694Z,53.72
2023-05-15T19:21:30.062Z,53.61
2023-05-15T19:23:59.292Z,53.52
2023-05-15T19:26:28.711Z,54.24
2023-05-15T19:28:58.342Z,53.99
2023-05-15T19:31:31.857Z,54.10
2023-05-15T19:34:02.968Z,53.88
2023-05-15T19:36:32.639Z,53.97
2023-05-15T19:39:03.597Z,54.27
2023-05-15T19:41:33.134Z,54.05
2023-05-15T19:44:03.003Z,53.80
2023-05-15T19:46:34.111Z,53.69
2023-05-15T19:49:04.868Z,54.04
2023-05-15T19:51:35.140Z,53.89
2023-05-15T19:54:03.998Z,53.74
2023-05-15T19:56:32.998Z,53.95
2023-05-15T19:59:02.702Z,53.99
2023-05-15T20:01:31.594Z,53.76
2023-05-15T20:04:01.991Z,54.58
2023-05-15T20:06:30.992Z,54.42
2023-05-15T20:09:03.439Z,54.20
2023-05-15T20:11:33.182Z,54.14
2023-05-15T20:14:01.998Z,54.05
2023-05-15T20:16:31.809Z,54.07
2023-05-15T20:19:02.436Z,53.74
2023-05-15T20:21:56.852Z,53.89
2023-05-15T20:24:26.451Z,53.83
2023-05-15T20:26:55.185Z,53.57
2023-05-15T20:29:25.734Z,53.72
2023-05-15T20:31:54.664Z,53.81
2023-05-15T20:34:25.040Z,53.56
2023-05-15T20:36:54.532Z,53.57
2023-05-15T20:39:23.396Z,53.81
2023-05-15T20:41:52.942Z,53.72
2023-05-15T20:44:21.643Z,53.88
2023-05-15T20:46:50.643Z,53.85
2023-05-15T20:49:19.331Z,53.80
2023-05-15T20:51:50.164Z,54.35
2023-05-15T20:54:18.977Z,53.99
2023-05-15T20:56:47.759Z,54.05
2023-05-15T20:59:16.641Z,53.90
2023-05-15T21:01:45.504Z,54.27
2023-05-15T21:04:14.294Z,53.93
2023-05-15T21:06:43.042Z,54.07
2023-05-15T21:09:15.603Z,53.99
2023-05-15T21:11:45.688Z,54.23
2023-05-15T21:14:14.696Z,54.36
2023-05-15T21:16:43.508Z,54.13
2023-05-15T21:19:12.365Z,54.19
2023-05-15T21:21:41.051Z,54.11
2023-05-15T21:24:58.721Z,54.45
2023-05-15T21:27:29.205Z,53.99
2023-05-15T21:29:58.808Z,54.08
2023-05-15T21:32:27.816Z,54.07
2023-05-15T21:34:56.503Z,53.92
2023-05-15T21:37:25.251Z,54.23
2023-05-15T21:39:53.931Z,54.03
2023-05-15T21:42:23.286Z,53.90
2023-05-15T21:44:53.266Z,54.12
2023-05-15T21:47:21.971Z,54.47
2023-05-15T21:49:51.077Z,54.37
2023-05-15T21:52:19.779Z,54.62
2023-05-15T21:54:48.494Z,54.55
2023-05-15T21:57:17.184Z,54.76
2023-05-15T21:59:46.155Z,54.85
2023-05-15T22:02:16.311Z,54.64
2023-05-15T22:04:45.043Z,54.86
2023-05-15T22:07:14.907Z,54.70
2023-05-15T22:09:45.142Z,54.88
2023-05-15T22:12:13.816Z,54.81
2023-05-15T22:14:54.726Z,54.78
2023-05-15T22:17:30.529Z,54.82
2023-05-15T22:20:07.375Z,55.00
2023-05-15T22:22:37.652Z,55.22
2023-05-15T22:25:07.915Z,55.16
2023-05-15T22:27:36.802Z,55.27
2023-05-15T22:30:12.878Z,55.34
2023-05-15T22:32:43.508Z,55.39
2023-05-15T22:35:13.427Z,55.25
2023-05-15T22:37:42.469Z,55.55
2023-05-15T22:40:15.994Z,55.81
2023-05-15T22:42:50.440Z,55.90
2023-05-15T22:45:19.842Z,56.15
2023-05-15T22:47:51.790Z,56.05
2023-05-15T22:50:20.717Z,55.97
2023-05-15T22:52:49.503Z,55.99
2023-05-15T22:55:18.443Z,55.98
2023-05-15T22:57:47.183Z,56.17
2023-05-15T23:01:04.211Z,56.35
2023-05-15T23:03:34.791Z,56.37
2023-05-15T23:06:34.655Z,56.58
2023-05-15T23:09:04.728Z,56.39
2023-05-15T23:11:33.796Z,56.26
2023-05-15T23:14:03.206Z,56.45
2023-05-15T23:16:32.727Z,56.66
2023-05-15T23:19:03.460Z,56.71
2023-05-15T23:21:32.697Z,56.63
2023-05-15T23:24:01.763Z,56.60
2023-05-15T23:26:30.789Z,56.84
2023-05-15T23:28:59.756Z,57.04
2023-05-15T23:31:29.183Z,56.95
2023-05-15T23:33:58.065Z,56.86
2023-05-15T23:36:28.529Z,57.14
2023-05-15T23:38:57.557Z,57.35
2023-05-15T23:41:27.309Z,57.54
2023-05-15T23:43:56.290Z,57.13
2023-05-15T23:46:25.285Z,57.25
2023-05-15T23:48:54.376Z,57.57
2023-05-15T23:51:23.412Z,57.78
2023-05-15T23:53:53.760Z,57.79
2023-05-15T23:56:23.890Z,57.89
2023-05-15T23:58:52.841Z,57.96
